Beatty, Nevada Weather observations

Data are for observation ending at time listed.
 Day   Time    Ave.   Ave.  Ave.  Vector   Max.   Stn.    Total    Solar   Ave.  
  of    of     Air    Rel.  Wind   Wind    Wind   Baro.  Precip.   Rad.    Soil  
Year   Day     Temp.  Hum.  Speed  Dir.    Gust   Pres.                    Temp. 
2015   (PST)    F      %     mph   deg.    mph     mb.     in.     W/m2     F   
------------------------------------------------------------------------------
 114   18:50   65.9    38    3.0   233      6.4   891.8    0.00       0    69.2
 114   19:00   66.1    33    2.9   235      7.7   891.9    0.00       0    69.2
 114   19:10   65.7    32    2.3   230      3.9   892.0    0.00       0    69.2
 114   19:20   64.9    35    3.3   182      5.9   892.2    0.00       0    69.2
 114   19:30   63.4    41    2.4   203      3.7   892.4    0.00       0    69.2
 114   19:40   62.9    41    1.2   200      3.1   892.5    0.00       0    69.2
 114   19:50   62.7    41    2.2   163      5.4   892.7    0.00       0    69.2
 114   20:00   63.1    38    0.6   118      3.7   893.0    0.00       0    69.2
 114   20:10   62.7    38    1.9   360      4.9   893.3    0.00       0    69.2
 114   20:20   63.2    37    3.1    79      6.6   893.4    0.00       0    69.2
 114   20:30   63.8    36    1.6    56      3.7   893.5    0.00       0    69.2
 114   20:40   63.5    34    2.7   101      8.1   893.6    0.00       0    69.2
 114   20:50   63.6    33    4.2   108     12.9   893.6    0.00       0    69.2
 114   21:00   63.0    33    6.7    99     16.6   893.7    0.00       0    69.2
 114   21:10   62.8    34    5.7   121     15.2   893.8    0.00       0    69.2
 114   21:20   62.1    34    6.4   136     15.9   893.9    0.00       0    69.2
 114   21:30   61.4    36    4.9   141     12.0   893.8    0.00       0    69.2
 114   21:40   61.0    38    1.4   136      4.9   894.0    0.00       0    69.2
 114   21:50   60.6    38    1.7    45      4.2   894.2    0.00       0    69.2
 114   22:00   60.1    39    3.0    22      5.9   894.3    0.00       0    69.2
 114   22:10   60.0    38    2.9    21      6.7   894.3    0.00       0    69.2
 114   22:20   59.7    38    3.6   352      7.9   894.3    0.00       0    69.1
 114   22:30   59.4    40    3.3   278      6.8   894.2    0.00       0    69.1
 114   22:40   58.5    42    1.6   254      4.2   894.3    0.00       0    69.1
 114   22:50   57.9    45    2.6   244      6.0   894.3    0.00       0    69.0
 114   23:00   57.5    46    3.4   242      6.8   894.4    0.00       0    69.0
 114   23:10   57.2    46    3.2   256      7.2   894.5    0.00       0    69.0
 114   23:20   56.9    47    2.4   242      4.7   894.5    0.00       0    69.0
 114   23:30   56.6    48    1.7   208      3.7   894.5    0.00       0    69.0
 114   23:40   56.2    49    1.8   205      3.7   894.5    0.00       0    69.0
 114   23:50   55.7    50    1.1   200      2.6   894.6    0.00       0    68.9
 115    0:00   55.3    50    2.1    82      4.7   894.7    0.00       0    68.9
 115    0:10   55.4    50    1.2   104      4.3   894.7    0.00       0    68.9
 115    0:20   55.4    51    0.7    50      1.8   894.6    0.00       0    68.8
 115    0:30   54.9    52    0.5    28      2.7   894.4    0.00       0    68.8
 115    0:40   54.1    50    0.7    58      2.6   894.3    0.00       0    68.8
 115    0:50   52.6    51    1.1    68      2.9   894.4    0.00       0    68.8
 115    1:00   51.3    54    0.9    61      2.6   894.4    0.00       0    68.7
 115    1:10   50.9    55    0.8    55      2.2   894.3    0.00       0    68.7
 115    1:20   50.9    55    0.6    32      2.3   894.2    0.00       0    68.7
 115    1:30   50.2    57    0.9    27      1.8   894.0    0.00       0    68.6
 115    1:40   49.0    59    0.5   352      1.3   893.9    0.00       0    68.6
 115    1:50   48.5    59    0.7    78      2.7   894.0    0.00       0    68.6
 115    2:00   48.5    58    1.5    60      3.6   893.9    0.00       0    68.5
 115    2:10   48.8    59    1.7     2      3.0   893.8    0.00       0    68.5
 115    2:20   48.3    59    1.6    28      3.2   893.8    0.00       0    68.5
 115    2:30   48.0    60    1.3    52      2.9   893.8    0.00       0    68.4
 115    2:40   48.0    61    1.5    32      3.0   893.7    0.00       0    68.4
 115    2:50   47.9    60    2.2    42      4.3   893.7    0.00       0    68.4
 115    3:00   47.4    62    1.7    51      2.7   893.7    0.00       0    68.3
 115    3:10   47.5    62    1.0    46      2.3   893.7    0.00       0    68.3
 115    3:20   47.5    63    1.3    35      2.5   893.7    0.00       0    68.2
 115    3:30   47.4    64    0.6    14      1.7   893.6    0.00       0    68.2
 115    3:40   47.2    65    0.4   313      1.8   893.5    0.00       0    68.1
 115    3:50   47.0    65    0.9    32      1.8   893.5    0.00       0    68.1
 115    4:00   47.3    65    0.4   351      1.5   893.4    0.00       0    68.1
 115    4:10   47.0    64    0.9    45      2.3   893.3    0.00       0    68.0
 115    4:20   46.5    64    2.1    43      4.2   893.3    0.00       0    68.0
 115    4:30   46.4    66    0.8    31      2.7   893.3    0.00       0    68.0
 115    4:40   46.9    66    0.6    12      1.8   893.2    0.00       0    67.9
 115    4:50   47.3    66    0.9    25      2.0   893.1    0.00       0    67.9
 115    5:00   46.9    64    1.4    68      4.0   893.0    0.00       0    67.8
 115    5:10   45.3    67    1.8    57      4.7   893.1    0.00       1    67.8
 115    5:20   45.8    67    1.9    58      4.2   893.3    0.00       8    67.7
 115    5:30   46.5    67    1.5   360      3.5   893.3    0.00      16    67.7
 115    5:40   46.2    67    1.5   353      4.0   893.2    0.00      24    67.7
 115    5:50   46.6    67    0.9    19      2.0   893.3    0.00      34    67.6
 115    6:00   47.3    65    0.8    68      2.3   893.2    0.00      45    67.6
 115    6:10   47.4    64    1.8    61      4.5   893.1    0.00      57    67.5
 115    6:20   47.7    64    1.6    23      3.4   893.1    0.00      64    67.5
 115    6:30   48.9    63    0.6    60      2.4   893.3    0.00      78    67.4
 115    6:40   50.4    59    2.1   200      6.1   893.1    0.00      97    67.4
 115    6:50   52.4    54    4.1   182      9.8   893.1    0.00     106    67.4
 115    7:00   52.4    56    2.8   104      7.1   893.2    0.00     116    67.3
 115    7:10   52.7    55    2.1    71      4.2   893.2    0.00     126    67.3
 115    7:20   53.4    53    1.4    80      3.8   893.3    0.00     127    67.2
 115    7:30   54.4    52    0.8    76      3.1   893.1    0.00     140    67.2
 115    7:40   54.8    50    0.9    50      2.7   893.0    0.00     161    67.1
 115    7:50   55.0    49    2.2   180      7.7   893.1    0.00     178    67.1
 115    8:00   55.0    47    5.5   210      8.7   893.1    0.00     231    67.1
 115    8:10   54.8    48    6.6   220     11.1   893.0    0.00     247    67.0
 115    8:20   54.7    48    6.1   220     10.9   892.9    0.00     217    67.0
 115    8:30   54.9    46    5.9   221     11.7   892.8    0.00     315    66.9
 115    8:40   55.6    44    6.7   220     12.6   892.7    0.00     431    66.8
 115    8:50   56.6    40    8.4   210     13.4   892.7    0.00     478    66.8
 115    9:00   56.7    38    8.5   206     15.3   892.6    0.00     400    66.8
 115    9:10   56.8    38    9.1   210     16.4   892.7    0.00     400    66.7
 115    9:20   56.7    39    8.8   207     16.1   892.7    0.00     433    66.7
 115    9:30   56.9    39    8.6   209     13.9   892.6    0.00     371    66.7
 115    9:40   56.9    38    7.6   209     12.9   892.6    0.00     326    66.6
 115    9:50   57.3    38    8.2   205     15.7   892.6    0.00     454    66.6
 115   10:00   58.0    36    8.2   211     14.7   892.6    0.00     468    66.6
 115   10:10   58.2    35    6.9   200     13.2   892.6    0.00     387    66.5
 115   10:20   58.6    35    5.6   190     11.8   892.4    0.00     377    66.5
 115   10:30   58.9    34    4.3   186     10.7   892.3    0.00     323    66.5
 115   10:40   58.7    34    3.3   192      6.2   892.1    0.00     217    66.4
 115   10:50   59.1    33    1.9   174      4.3   891.9    0.00     339    66.4
 115   11:00   60.3    32    1.5   263      3.9   891.6    0.00     315    66.4
 115   11:10   60.7    32    2.0   145      6.4   891.5    0.00     297    66.4
 115   11:20   59.8    33    2.6   230      5.8   891.4    0.00     390    66.3
 115   11:30   60.6    32    3.4   210      9.8   891.1    0.00     528    66.3
 115   11:40   62.3    30    8.2   197     14.9   890.9    0.00     758    66.3
 115   11:50   63.0    29    6.2   188     11.3   890.8    0.00     736    66.4
 115   12:00   63.2    29    5.2   179     12.5   890.5    0.00     758    66.4
 115   12:10   63.9    28    7.5   205     12.3   890.3    0.00     779    66.4
 115   12:20   63.9    28    7.5   190     15.3   890.2    0.00     512    66.3
 115   12:30   62.6    29    7.0   192     12.8   890.2    0.00     574    66.3
 115   12:40   63.4    28    5.8   192     11.5   890.4    0.00     170    66.4
 115   12:50   61.7    29    3.0   267      7.6   890.9    0.00      40    66.4
 115   13:00   58.0    49    9.1   335     21.9   891.3    0.00      15    66.4
 115   13:10   52.7    61    7.3   323     16.4   892.5    0.03      11    66.4
 115   13:20   50.4    66    4.5   284     11.0   892.6    0.01      12    66.4
 115   13:30   50.1    67    5.1   239     13.3   892.6    0.04      12    66.4
 115   13:40   53.3    47    5.9    58     15.3   891.6    0.00      15    66.4
 115   13:50   54.4    51    9.2   354     21.0   892.1    0.00      27    66.4
 115   14:00   51.2    64   13.9     7     27.0   892.9    0.01      51    66.4
 115   14:10   48.1    74   13.1    15     26.6   893.4    0.01      43    66.4
 115   14:20   47.6    80    6.4    56     21.9   892.9    0.01     116    66.5
 115   14:30   48.3    75    9.0    78     20.5   892.3    0.00     327    66.5
 115   14:40   50.3    74    5.3    42     11.3   892.2    0.00     423    66.5
 115   14:50   51.5    71    5.5    27     14.7   892.2    0.00     446    66.5
 115   15:00   53.0    63    5.8    28     11.5   892.0    0.00     407    66.6
 115   15:10   53.6    61    5.7    16     11.7   891.9    0.00     325    66.6
 115   15:20   54.1    55    6.9    14     15.3   891.8    0.00     224    66.6
 115   15:30   54.5    55    4.5    33     10.7   891.7    0.00     172    66.6
 115   15:40   54.8    56    4.1    32     10.2   891.6    0.00     157    66.6
 115   15:50   55.4    56    2.9    46      6.5   891.5    0.00     165    66.6
 115   16:00   56.8    52    2.0    30      5.8   891.3    0.00     210    66.6
 115   16:10   59.5    40    5.7    12     16.4   891.0    0.00     206    66.6
 115   16:20   60.3    33   12.4     3     20.3   891.1    0.00     205    66.6
 115   16:30   60.6    30   14.1     3     23.9   891.3    0.00     239    66.6
 115   16:40   60.6    33   12.3     9     23.0   891.6    0.00     236    66.6
 115   16:50   60.6    29   12.9     1     26.4   891.8    0.00     269    66.6
 115   17:00   60.3    27   13.2   358     23.3   891.9    0.00     297    66.5
 115   17:10   60.4    29   11.8     0     26.5   891.9    0.00     262    66.5
 115   17:20   60.3    30   15.3     3     24.5   891.9    0.00     208    66.5
 115   17:30   59.7    29   12.3     3     21.3   892.1    0.00     149    66.5
 115   17:40   59.2    28   13.1   360     25.5   892.2    0.00     100    66.4
 115   17:50   58.9    28   13.9     1     24.5   892.3    0.00      89    66.4
 115   18:00   58.6    28   11.5     4     21.5   892.2    0.00      48    66.3
 115   18:10   57.8    30   10.3     4     17.5   892.4    0.00      23    66.3
 115   18:20   57.4    30   10.1     8     16.8   892.6    0.00      13    66.3
 115   18:30   56.9    31   11.3     5     20.7   892.7    0.00       7    66.2
 115   18:40   56.5    32    9.2     6     22.9   892.8    0.00       3    66.1

Return to Beatty, Nevada graphs page.


Western Regional Climate Center,wrcc@dri.edu